sensor_id;sensor_type;location;lat;lon;timestamp;temperature;humidity
1830;DHT22;914;48.118;11.600;2022-09-09T00:04:39;19.40;95.70
1830;DHT22;914;48.118;11.600;2022-09-09T00:07:13;19.30;95.60
1830;DHT22;914;48.118;11.600;2022-09-09T00:14:55;19.40;95.80
1830;DHT22;914;48.118;11.600;2022-09-09T00:17:45;19.40;95.80
1830;DHT22;914;48.118;11.600;2022-09-09T00:23:10;19.40;95.90
1830;DHT22;914;48.118;11.600;2022-09-09T00:25:46;19.40;95.80
1830;DHT22;914;48.118;11.600;2022-09-09T00:28:26;19.30;96.10
1830;DHT22;914;48.118;11.600;2022-09-09T00:30:53;19.40;96.00
1830;DHT22;914;48.118;11.600;2022-09-09T00:33:22;19.50;95.90
1830;DHT22;914;48.118;11.600;2022-09-09T00:35:51;19.50;96.00
1830;DHT22;914;48.118;11.600;2022-09-09T00:38:39;19.50;96.10
1830;DHT22;914;48.118;11.600;2022-09-09T00:44:00;19.50;96.20
1830;DHT22;914;48.118;11.600;2022-09-09T00:46:49;19.50;96.10
1830;DHT22;914;48.118;11.600;2022-09-09T00:57:36;19.20;97.10
1830;DHT22;914;48.118;11.600;2022-09-09T01:00:24;19.30;97.10
1830;DHT22;914;48.118;11.600;2022-09-09T01:05:49;19.30;97.10
1830;DHT22;914;48.118;11.600;2022-09-09T01:08:29;19.40;97.10
1830;DHT22;914;48.118;11.600;2022-09-09T01:10:58;19.50;96.90
1830;DHT22;914;48.118;11.600;2022-09-09T01:13:30;19.30;97.00
1830;DHT22;914;48.118;11.600;2022-09-09T01:16:01;19.30;96.90
1830;DHT22;914;48.118;11.600;2022-09-09T01:18:31;19.30;97.00
1830;DHT22;914;48.118;11.600;2022-09-09T01:26:26;19.40;96.80
1830;DHT22;914;48.118;11.600;2022-09-09T01:28:53;19.40;96.80
1830;DHT22;914;48.118;11.600;2022-09-09T01:31:51;19.40;96.90
1830;DHT22;914;48.118;11.600;2022-09-09T01:34:17;19.30;96.70
1830;DHT22;914;48.118;11.600;2022-09-09T01:36:57;19.30;97.00
1830;DHT22;914;48.118;11.600;2022-09-09T01:39:23;19.30;96.70
1830;DHT22;914;48.118;11.600;2022-09-09T01:41:49;19.40;96.80
1830;DHT22;914;48.118;11.600;2022-09-09T01:44:15;19.40;96.80
1830;DHT22;914;48.118;11.600;2022-09-09T01:46:41;19.30;96.80
1830;DHT22;914;48.118;11.600;2022-09-09T01:49:07;19.40;97.30
1830;DHT22;914;48.118;11.600;2022-09-09T01:51:34;19.30;97.30
1830;DHT22;914;48.118;11.600;2022-09-09T01:54:01;19.30;97.40
1830;DHT22;914;48.118;11.600;2022-09-09T02:07:01;18.90;98.60
1830;DHT22;914;48.118;11.600;2022-09-09T02:09:29;19.00;98.40
1830;DHT22;914;48.118;11.600;2022-09-09T02:12:13;19.10;98.10
1830;DHT22;914;48.118;11.600;2022-09-09T02:14:42;19.10;98.00
1830;DHT22;914;48.118;11.600;2022-09-09T02:17:15;19.10;98.00
1830;DHT22;914;48.118;11.600;2022-09-09T02:19:53;19.00;98.50
1830;DHT22;914;48.118;11.600;2022-09-09T02:22:22;18.90;98.60
1830;DHT22;914;48.118;11.600;2022-09-09T02:24:50;19.00;98.50
1830;DHT22;914;48.118;11.600;2022-09-09T02:27:20;19.00;98.30
1830;DHT22;914;48.118;11.600;2022-09-09T02:29:48;19.10;98.30
1830;DHT22;914;48.118;11.600;2022-09-09T02:32:19;19.10;98.00
1830;DHT22;914;48.118;11.600;2022-09-09T02:34:48;19.10;98.10
1830;DHT22;914;48.118;11.600;2022-09-09T02:37:20;19.10;98.00
1830;DHT22;914;48.118;11.600;2022-09-09T02:39:47;19.00;98.10
1830;DHT22;914;48.118;11.600;2022-09-09T02:42:13;19.10;97.90
1830;DHT22;914;48.118;11.600;2022-09-09T02:44:40;19.10;98.00
1830;DHT22;914;48.118;11.600;2022-09-09T02:52:15;19.00;97.90
1830;DHT22;914;48.118;11.600;2022-09-09T02:54:44;19.00;98.20
1830;DHT22;914;48.118;11.600;2022-09-09T02:59:39;19.00;98.20
1830;DHT22;914;48.118;11.600;2022-09-09T03:02:05;19.00;98.10
1830;DHT22;914;48.118;11.600;2022-09-09T03:04:31;19.10;98.30
1830;DHT22;914;48.118;11.600;2022-09-09T03:06:58;19.10;98.10
1830;DHT22;914;48.118;11.600;2022-09-09T03:09:24;19.00;98.70
1830;DHT22;914;48.118;11.600;2022-09-09T03:11:51;18.90;98.80
1830;DHT22;914;48.118;11.600;2022-09-09T03:14:17;18.90;99.00
1830;DHT22;914;48.118;11.600;2022-09-09T03:16:47;18.90;98.80
1830;DHT22;914;48.118;11.600;2022-09-09T03:19:12;18.90;98.90
1830;DHT22;914;48.118;11.600;2022-09-09T03:21:38;18.90;99.00
1830;DHT22;914;48.118;11.600;2022-09-09T03:24:04;18.90;98.90
1830;DHT22;914;48.118;11.600;2022-09-09T03:26:30;19.00;98.50
1830;DHT22;914;48.118;11.600;2022-09-09T03:28:57;18.90;98.60
1830;DHT22;914;48.118;11.600;2022-09-09T03:31:22;18.90;98.90
1830;DHT22;914;48.118;11.600;2022-09-09T03:33:49;18.90;98.80
1830;DHT22;914;48.118;11.600;2022-09-09T03:36:15;18.90;98.90
1830;DHT22;914;48.118;11.600;2022-09-09T03:38:41;18.90;98.30
1830;DHT22;914;48.118;11.600;2022-09-09T03:41:07;18.80;98.30
1830;DHT22;914;48.118;11.600;2022-09-09T03:43:33;18.70;98.40
1830;DHT22;914;48.118;11.600;2022-09-09T03:45:59;18.80;98.60
1830;DHT22;914;48.118;11.600;2022-09-09T03:48:25;18.80;98.50
1830;DHT22;914;48.118;11.600;2022-09-09T03:50:54;18.70;98.40
1830;DHT22;914;48.118;11.600;2022-09-09T03:53:21;18.80;98.40
1830;DHT22;914;48.118;11.600;2022-09-09T03:55:53;18.80;98.30
1830;DHT22;914;48.118;11.600;2022-09-09T03:58:23;18.70;98.50
1830;DHT22;914;48.118;11.600;2022-09-09T04:01:09;18.70;98.60
1830;DHT22;914;48.118;11.600;2022-09-09T04:03:35;18.70;99.00
1830;DHT22;914;48.118;11.600;2022-09-09T04:06:02;18.70;98.90
1830;DHT22;914;48.118;11.600;2022-09-09T04:08:29;18.80;98.80
1830;DHT22;914;48.118;11.600;2022-09-09T04:10:59;18.80;98.70
1830;DHT22;914;48.118;11.600;2022-09-09T04:13:26;18.90;98.50
1830;DHT22;914;48.118;11.600;2022-09-09T04:15:56;18.80;98.50
1830;DHT22;914;48.118;11.600;2022-09-09T04:18:22;18.80;98.50
1830;DHT22;914;48.118;11.600;2022-09-09T04:20:49;18.80;98.50
1830;DHT22;914;48.118;11.600;2022-09-09T04:23:15;18.90;98.50
1830;DHT22;914;48.118;11.600;2022-09-09T04:25:46;18.90;98.70
1830;DHT22;914;48.118;11.600;2022-09-09T04:28:13;18.80;99.20
1830;DHT22;914;48.118;11.600;2022-09-09T04:30:39;18.60;99.60
1830;DHT22;914;48.118;11.600;2022-09-09T04:33:06;18.50;99.70
1830;DHT22;914;48.118;11.600;2022-09-09T04:35:32;18.50;99.90
1830;DHT22;914;48.118;11.600;2022-09-09T04:37:58;18.40;99.90
1830;DHT22;914;48.118;11.600;2022-09-09T04:40:24;18.40;99.80
1830;DHT22;914;48.118;11.600;2022-09-09T04:42:51;18.30;99.40
1830;DHT22;914;48.118;11.600;2022-09-09T04:45:16;18.40;99.40
1830;DHT22;914;48.118;11.600;2022-09-09T04:47:42;18.40;99.40
1830;DHT22;914;48.118;11.600;2022-09-09T04:50:08;18.60;99.30
1830;DHT22;914;48.118;11.600;2022-09-09T04:52:35;18.60;99.30
1830;DHT22;914;48.118;11.600;2022-09-09T04:55:01;18.50;99.20
1830;DHT22;914;48.118;11.600;2022-09-09T04:57:26;18.50;99.00
1830;DHT22;914;48.118;11.600;2022-09-09T04:59:52;18.60;99.10
1830;DHT22;914;48.118;11.600;2022-09-09T05:02:18;18.50;99.10
1830;DHT22;914;48.118;11.600;2022-09-09T05:04:43;18.50;99.00
1830;DHT22;914;48.118;11.600;2022-09-09T05:07:09;18.70;99.30
1830;DHT22;914;48.118;11.600;2022-09-09T05:09:35;18.60;99.40
1830;DHT22;914;48.118;11.600;2022-09-09T05:12:01;18.50;99.10
1830;DHT22;914;48.118;11.600;2022-09-09T05:14:28;18.50;99.00
1830;DHT22;914;48.118;11.600;2022-09-09T05:16:54;18.50;99.10
1830;DHT22;914;48.118;11.600;2022-09-09T05:19:21;18.50;99.10
1830;DHT22;914;48.118;11.600;2022-09-09T05:21:47;18.70;99.40
1830;DHT22;914;48.118;11.600;2022-09-09T05:24:12;18.70;99.50
1830;DHT22;914;48.118;11.600;2022-09-09T05:26:38;18.80;99.10
1830;DHT22;914;48.118;11.600;2022-09-09T05:29:04;18.60;99.00
1830;DHT22;914;48.118;11.600;2022-09-09T05:31:30;18.50;98.90
1830;DHT22;914;48.118;11.600;2022-09-09T05:33:56;18.50;99.20
1830;DHT22;914;48.118;11.600;2022-09-09T05:36:22;18.50;99.30
1830;DHT22;914;48.118;11.600;2022-09-09T05:38:48;18.60;99.30
1830;DHT22;914;48.118;11.600;2022-09-09T05:41:16;18.60;99.70
1830;DHT22;914;48.118;11.600;2022-09-09T05:43:43;18.60;99.50
1830;DHT22;914;48.118;11.600;2022-09-09T05:46:17;18.70;99.50
1830;DHT22;914;48.118;11.600;2022-09-09T05:48:44;18.70;99.20
1830;DHT22;914;48.118;11.600;2022-09-09T05:51:15;18.70;99.20
1830;DHT22;914;48.118;11.600;2022-09-09T05:53:43;18.50;99.40
1830;DHT22;914;48.118;11.600;2022-09-09T05:56:15;18.60;99.50
1830;DHT22;914;48.118;11.600;2022-09-09T05:58:42;18.60;99.90
1830;DHT22;914;48.118;11.600;2022-09-09T06:01:10;18.60;99.90
1830;DHT22;914;48.118;11.600;2022-09-09T06:03:37;18.60;99.70
1830;DHT22;914;48.118;11.600;2022-09-09T06:06:05;18.60;99.70
1830;DHT22;914;48.118;11.600;2022-09-09T06:08:36;18.70;99.80
1830;DHT22;914;48.118;11.600;2022-09-09T06:11:16;18.70;99.80
1830;DHT22;914;48.118;11.600;2022-09-09T06:13:42;18.80;99.80
1830;DHT22;914;48.118;11.600;2022-09-09T06:16:12;18.90;99.50
1830;DHT22;914;48.118;11.600;2022-09-09T06:18:38;18.90;99.30
1830;DHT22;914;48.118;11.600;2022-09-09T06:21:06;18.90;99.60
1830;DHT22;914;48.118;11.600;2022-09-09T06:23:33;18.90;99.90
1830;DHT22;914;48.118;11.600;2022-09-09T06:26:06;18.80;99.90
1830;DHT22;914;48.118;11.600;2022-09-09T06:28:35;18.80;99.80
1830;DHT22;914;48.118;11.600;2022-09-09T06:31:04;18.70;99.90
1830;DHT22;914;48.118;11.600;2022-09-09T06:33:32;18.70;99.90
1830;DHT22;914;48.118;11.600;2022-09-09T06:36:00;18.70;99.90
1830;DHT22;914;48.118;11.600;2022-09-09T06:38:26;18.60;99.90
1830;DHT22;914;48.118;11.600;2022-09-09T06:40:58;18.60;99.90
1830;DHT22;914;48.118;11.600;2022-09-09T06:43:28;18.70;99.90
1830;DHT22;914;48.118;11.600;2022-09-09T06:48:19;18.70;99.90
1830;DHT22;914;48.118;11.600;2022-09-09T06:50:45;18.70;99.90
1830;DHT22;914;48.118;11.600;2022-09-09T06:53:10;18.80;99.80
1830;DHT22;914;48.118;11.600;2022-09-09T06:55:36;18.90;99.90
1830;DHT22;914;48.118;11.600;2022-09-09T06:58:01;19.00;99.80
1830;DHT22;914;48.118;11.600;2022-09-09T07:00:27;19.20;99.70
1830;DHT22;914;48.118;11.600;2022-09-09T07:02:54;19.20;99.40
1830;DHT22;914;48.118;11.600;2022-09-09T07:05:20;19.30;99.30
1830;DHT22;914;48.118;11.600;2022-09-09T07:07:46;19.30;99.70
1830;DHT22;914;48.118;11.600;2022-09-09T07:10:14;19.30;99.60
1830;DHT22;914;48.118;11.600;2022-09-09T07:12:39;19.30;99.90
1830;DHT22;914;48.118;11.600;2022-09-09T07:15:05;19.40;99.70
1830;DHT22;914;48.118;11.600;2022-09-09T07:17:31;19.40;99.60
1830;DHT22;914;48.118;11.600;2022-09-09T07:19:56;19.50;99.40
1830;DHT22;914;48.118;11.600;2022-09-09T07:22:22;19.60;99.20
1830;DHT22;914;48.118;11.600;2022-09-09T07:24:48;19.70;99.20
1830;DHT22;914;48.118;11.600;2022-09-09T07:27:16;20.00;99.10
1830;DHT22;914;48.118;11.600;2022-09-09T07:29:41;19.70;99.00
1830;DHT22;914;48.118;11.600;2022-09-09T07:32:09;19.70;98.80
1830;DHT22;914;48.118;11.600;2022-09-09T07:34:35;19.50;99.60
1830;DHT22;914;48.118;11.600;2022-09-09T07:37:00;19.50;99.90
1830;DHT22;914;48.118;11.600;2022-09-09T07:39:26;19.40;99.90
1830;DHT22;914;48.118;11.600;2022-09-09T07:41:52;19.40;99.90
1830;DHT22;914;48.118;11.600;2022-09-09T07:44:21;19.50;99.80
1830;DHT22;914;48.118;11.600;2022-09-09T07:46:47;19.50;99.90
1830;DHT22;914;48.118;11.600;2022-09-09T07:49:13;19.60;99.90
1830;DHT22;914;48.118;11.600;2022-09-09T07:51:41;19.60;99.90
1830;DHT22;914;48.118;11.600;2022-09-09T07:54:10;19.70;99.90
1830;DHT22;914;48.118;11.600;2022-09-09T07:56:37;19.70;99.60
1830;DHT22;914;48.118;11.600;2022-09-09T07:59:03;19.90;99.40
1830;DHT22;914;48.118;11.600;2022-09-09T08:01:39;20.00;99.30
1830;DHT22;914;48.118;11.600;2022-09-09T08:04:08;20.00;98.80
1830;DHT22;914;48.118;11.600;2022-09-09T08:06:38;20.20;99.20
1830;DHT22;914;48.118;11.600;2022-09-09T08:09:05;20.20;98.70
1830;DHT22;914;48.118;11.600;2022-09-09T08:11:31;20.30;98.90
1830;DHT22;914;48.118;11.600;2022-09-09T08:13:58;20.30;98.80
1830;DHT22;914;48.118;11.600;2022-09-09T08:16:27;20.40;99.20
1830;DHT22;914;48.118;11.600;2022-09-09T08:18:53;20.60;99.50
1830;DHT22;914;48.118;11.600;2022-09-09T08:21:24;20.50;98.90
1830;DHT22;914;48.118;11.600;2022-09-09T08:23:52;20.70;98.20
1830;DHT22;914;48.118;11.600;2022-09-09T08:26:27;20.60;98.10
1830;DHT22;914;48.118;11.600;2022-09-09T08:28:55;20.50;98.80
1830;DHT22;914;48.118;11.600;2022-09-09T08:31:24;20.50;98.70
1830;DHT22;914;48.118;11.600;2022-09-09T08:33:51;20.50;98.60
1830;DHT22;914;48.118;11.600;2022-09-09T08:36:19;20.60;98.10
1830;DHT22;914;48.118;11.600;2022-09-09T08:38:53;20.60;98.30
1830;DHT22;914;48.118;11.600;2022-09-09T08:47:15;21.00;98.20
1830;DHT22;914;48.118;11.600;2022-09-09T08:52:16;20.80;98.10
1830;DHT22;914;48.118;11.600;2022-09-09T08:54:44;20.70;98.70
1830;DHT22;914;48.118;11.600;2022-09-09T08:57:20;20.70;98.30
1830;DHT22;914;48.118;11.600;2022-09-09T08:59:46;20.60;98.30
1830;DHT22;914;48.118;11.600;2022-09-09T09:02:46;20.60;98.90
1830;DHT22;914;48.118;11.600;2022-09-09T09:05:31;20.70;98.90
1830;DHT22;914;48.118;11.600;2022-09-09T09:08:20;20.80;99.10
1830;DHT22;914;48.118;11.600;2022-09-09T09:10:51;20.60;99.40
1830;DHT22;914;48.118;11.600;2022-09-09T09:13:24;20.50;99.90
1830;DHT22;914;48.118;11.600;2022-09-09T09:15:57;20.30;99.90
1830;DHT22;914;48.118;11.600;2022-09-09T09:18:24;20.60;99.90
1830;DHT22;914;48.118;11.600;2022-09-09T09:21:10;20.70;99.90
1830;DHT22;914;48.118;11.600;2022-09-09T09:23:48;20.90;99.10
1830;DHT22;914;48.118;11.600;2022-09-09T09:26:18;20.70;99.60
1830;DHT22;914;48.118;11.600;2022-09-09T09:28:44;20.90;99.30
1830;DHT22;914;48.118;11.600;2022-09-09T09:31:12;21.00;98.00
1830;DHT22;914;48.118;11.600;2022-09-09T09:33:50;21.20;97.90
1830;DHT22;914;48.118;11.600;2022-09-09T09:36:19;21.30;97.80
1830;DHT22;914;48.118;11.600;2022-09-09T09:38:59;21.40;98.30
1830;DHT22;914;48.118;11.600;2022-09-09T09:41:43;21.40;98.20
1830;DHT22;914;48.118;11.600;2022-09-09T09:46:48;21.30;99.00
1830;DHT22;914;48.118;11.600;2022-09-09T09:49:13;21.30;98.90
1830;DHT22;914;48.118;11.600;2022-09-09T09:51:40;21.30;98.50
1830;DHT22;914;48.118;11.600;2022-09-09T09:56:39;21.10;99.60
1830;DHT22;914;48.118;11.600;2022-09-09T09:59:05;21.10;99.50
1830;DHT22;914;48.118;11.600;2022-09-09T10:01:45;21.00;99.20
1830;DHT22;914;48.118;11.600;2022-09-09T10:04:22;21.10;99.10
1830;DHT22;914;48.118;11.600;2022-09-09T10:06:49;21.10;99.60
1830;DHT22;914;48.118;11.600;2022-09-09T10:09:30;21.10;99.20
1830;DHT22;914;48.118;11.600;2022-09-09T10:15:05;21.30;99.30
1830;DHT22;914;48.118;11.600;2022-09-09T10:22:36;20.90;98.60
1830;DHT22;914;48.118;11.600;2022-09-09T10:25:26;20.80;98.80
1830;DHT22;914;48.118;11.600;2022-09-09T10:33:35;20.70;99.00
1830;DHT22;914;48.118;11.600;2022-09-09T10:38:42;20.70;99.10
1830;DHT22;914;48.118;11.600;2022-09-09T10:41:16;20.90;98.80
1830;DHT22;914;48.118;11.600;2022-09-09T10:49:34;21.00;98.40
1830;DHT22;914;48.118;11.600;2022-09-09T10:52:26;21.10;98.50
1830;DHT22;914;48.118;11.600;2022-09-09T10:57:50;20.80;98.80
1830;DHT22;914;48.118;11.600;2022-09-09T11:00:23;20.70;98.90
1830;DHT22;914;48.118;11.600;2022-09-09T11:02:56;20.70;99.30
1830;DHT22;914;48.118;11.600;2022-09-09T11:05:36;20.90;99.10
1830;DHT22;914;48.118;11.600;2022-09-09T11:08:10;21.00;98.50
1830;DHT22;914;48.118;11.600;2022-09-09T11:10:53;21.20;98.60
1830;DHT22;914;48.118;11.600;2022-09-09T11:13:39;21.20;98.20
1830;DHT22;914;48.118;11.600;2022-09-09T11:16:33;21.40;98.00
1830;DHT22;914;48.118;11.600;2022-09-09T11:19:28;21.40;97.90
1830;DHT22;914;48.118;11.600;2022-09-09T11:21:55;21.40;97.60
1830;DHT22;914;48.118;11.600;2022-09-09T11:24:45;21.50;98.10
1830;DHT22;914;48.118;11.600;2022-09-09T11:27:20;21.80;97.90
1830;DHT22;914;48.118;11.600;2022-09-09T11:30:22;21.90;98.20
1830;DHT22;914;48.118;11.600;2022-09-09T11:38:52;21.60;98.00
1830;DHT22;914;48.118;11.600;2022-09-09T11:41:21;21.80;97.90
1830;DHT22;914;48.118;11.600;2022-09-09T11:43:51;21.80;97.10
1830;DHT22;914;48.118;11.600;2022-09-09T11:46:20;21.80;97.30
1830;DHT22;914;48.118;11.600;2022-09-09T11:49:02;21.90;97.10
1830;DHT22;914;48.118;11.600;2022-09-09T11:51:30;22.00;96.50
1830;DHT22;914;48.118;11.600;2022-09-09T11:54:44;22.30;97.20
1830;DHT22;914;48.118;11.600;2022-09-09T11:56:49;22.40;96.40
1830;DHT22;914;48.118;11.600;2022-09-09T11:59:30;22.60;96.40
1830;DHT22;914;48.118;11.600;2022-09-09T12:02:23;22.30;95.40
1830;DHT22;914;48.118;11.600;2022-09-09T12:05:08;22.10;95.50
1830;DHT22;914;48.118;11.600;2022-09-09T12:07:52;22.10;96.00
1830;DHT22;914;48.118;11.600;2022-09-09T12:10:30;22.20;96.00
1830;DHT22;914;48.118;11.600;2022-09-09T12:13:17;22.20;95.80
1830;DHT22;914;48.118;11.600;2022-09-09T12:15:53;22.50;95.30
1830;DHT22;914;48.118;11.600;2022-09-09T12:18:26;22.60;94.90
1830;DHT22;914;48.118;11.600;2022-09-09T12:24:02;22.50;95.20
1830;DHT22;914;48.118;11.600;2022-09-09T12:29:56;22.40;94.80
1830;DHT22;914;48.118;11.600;2022-09-09T12:32:25;22.30;95.20
1830;DHT22;914;48.118;11.600;2022-09-09T12:34:55;22.40;95.40
1830;DHT22;914;48.118;11.600;2022-09-09T12:37:41;22.50;95.60
1830;DHT22;914;48.118;11.600;2022-09-09T12:42:45;22.90;95.30
1830;DHT22;914;48.118;11.600;2022-09-09T12:45:17;22.90;95.00
1830;DHT22;914;48.118;11.600;2022-09-09T12:48:01;22.90;95.30
1830;DHT22;914;48.118;11.600;2022-09-09T12:50:32;22.90;95.20
1830;DHT22;914;48.118;11.600;2022-09-09T12:53:01;23.60;94.80
1830;DHT22;914;48.118;11.600;2022-09-09T12:55:31;23.50;94.40
1830;DHT22;914;48.118;11.600;2022-09-09T12:58:00;23.70;94.20
1830;DHT22;914;48.118;11.600;2022-09-09T13:00:29;23.60;94.90
1830;DHT22;914;48.118;11.600;2022-09-09T13:03:01;23.60;94.70
1830;DHT22;914;48.118;11.600;2022-09-09T13:05:36;23.70;94.40
1830;DHT22;914;48.118;11.600;2022-09-09T13:08:08;23.80;93.50
1830;DHT22;914;48.118;11.600;2022-09-09T13:13:16;23.20;94.60
1830;DHT22;914;48.118;11.600;2022-09-09T13:15:52;23.10;94.50
1830;DHT22;914;48.118;11.600;2022-09-09T13:18:21;22.90;95.30
1830;DHT22;914;48.118;11.600;2022-09-09T13:20:50;22.60;94.90
1830;DHT22;914;48.118;11.600;2022-09-09T13:23:19;22.40;95.60
1830;DHT22;914;48.118;11.600;2022-09-09T13:25:58;22.50;95.40
1830;DHT22;914;48.118;11.600;2022-09-09T13:28:29;22.50;95.00
1830;DHT22;914;48.118;11.600;2022-09-09T13:31:05;22.60;94.60
1830;DHT22;914;48.118;11.600;2022-09-09T13:33:37;22.60;94.60
1830;DHT22;914;48.118;11.600;2022-09-09T13:36:09;22.50;94.80
1830;DHT22;914;48.118;11.600;2022-09-09T13:41:23;22.40;94.30
1830;DHT22;914;48.118;11.600;2022-09-09T13:43:50;22.20;95.00
1830;DHT22;914;48.118;11.600;2022-09-09T13:46:37;22.10;95.20
1830;DHT22;914;48.118;11.600;2022-09-09T13:54:04;22.00;95.30
1830;DHT22;914;48.118;11.600;2022-09-09T13:56:33;21.70;95.90
1830;DHT22;914;48.118;11.600;2022-09-09T13:58:58;21.70;96.00
1830;DHT22;914;48.118;11.600;2022-09-09T14:01:24;21.80;96.00
1830;DHT22;914;48.118;11.600;2022-09-09T14:03:51;21.90;95.90
1830;DHT22;914;48.118;11.600;2022-09-09T14:06:21;21.80;95.90
1830;DHT22;914;48.118;11.600;2022-09-09T14:08:50;21.90;95.80
1830;DHT22;914;48.118;11.600;2022-09-09T14:11:17;21.90;95.80
1830;DHT22;914;48.118;11.600;2022-09-09T14:13:43;21.90;95.90
1830;DHT22;914;48.118;11.600;2022-09-09T14:16:09;21.80;96.30
1830;DHT22;914;48.118;11.600;2022-09-09T14:18:35;21.80;96.30
1830;DHT22;914;48.118;11.600;2022-09-09T14:21:02;21.80;96.20
1830;DHT22;914;48.118;11.600;2022-09-09T14:23:28;21.70;96.20
1830;DHT22;914;48.118;11.600;2022-09-09T14:25:55;21.50;95.90
1830;DHT22;914;48.118;11.600;2022-09-09T14:28:22;21.40;96.30
1830;DHT22;914;48.118;11.600;2022-09-09T14:30:49;21.40;96.50
1830;DHT22;914;48.118;11.600;2022-09-09T14:33:16;21.50;96.20
1830;DHT22;914;48.118;11.600;2022-09-09T14:35:44;21.60;96.20
1830;DHT22;914;48.118;11.600;2022-09-09T14:38:10;21.80;95.50
1830;DHT22;914;48.118;11.600;2022-09-09T14:40:36;21.70;95.70
1830;DHT22;914;48.118;11.600;2022-09-09T14:43:03;21.60;95.80
1830;DHT22;914;48.118;11.600;2022-09-09T14:45:30;21.50;95.90
1830;DHT22;914;48.118;11.600;2022-09-09T14:47:56;21.60;95.70
1830;DHT22;914;48.118;11.600;2022-09-09T14:50:23;21.50;95.80
1830;DHT22;914;48.118;11.600;2022-09-09T14:52:49;21.50;95.80
1830;DHT22;914;48.118;11.600;2022-09-09T14:55:15;21.40;95.80
1830;DHT22;914;48.118;11.600;2022-09-09T14:57:41;21.40;95.90
1830;DHT22;914;48.118;11.600;2022-09-09T15:00:09;21.50;95.90
1830;DHT22;914;48.118;11.600;2022-09-09T15:02:35;21.70;95.60
1830;DHT22;914;48.118;11.600;2022-09-09T15:05:01;21.80;95.00
1830;DHT22;914;48.118;11.600;2022-09-09T15:07:27;21.70;95.50
1830;DHT22;914;48.118;11.600;2022-09-09T15:09:54;21.70;95.80
1830;DHT22;914;48.118;11.600;2022-09-09T15:12:19;21.60;95.20
1830;DHT22;914;48.118;11.600;2022-09-09T15:14:46;21.60;95.90
1830;DHT22;914;48.118;11.600;2022-09-09T15:17:12;21.70;95.50
1830;DHT22;914;48.118;11.600;2022-09-09T15:19:38;21.60;95.50
1830;DHT22;914;48.118;11.600;2022-09-09T15:22:05;21.60;95.70
1830;DHT22;914;48.118;11.600;2022-09-09T15:24:31;21.40;95.40
1830;DHT22;914;48.118;11.600;2022-09-09T15:26:57;21.40;95.10
1830;DHT22;914;48.118;11.600;2022-09-09T15:29:23;21.40;95.20
1830;DHT22;914;48.118;11.600;2022-09-09T15:31:49;21.40;95.30
1830;DHT22;914;48.118;11.600;2022-09-09T15:34:14;21.50;95.20
1830;DHT22;914;48.118;11.600;2022-09-09T15:36:44;21.40;95.20
1830;DHT22;914;48.118;11.600;2022-09-09T15:39:13;21.40;95.20
1830;DHT22;914;48.118;11.600;2022-09-09T15:41:41;21.20;95.30
1830;DHT22;914;48.118;11.600;2022-09-09T15:44:08;21.50;95.40
1830;DHT22;914;48.118;11.600;2022-09-09T15:46:44;21.50;95.00
1830;DHT22;914;48.118;11.600;2022-09-09T15:49:15;21.40;95.00
1830;DHT22;914;48.118;11.600;2022-09-09T15:51:45;21.30;94.90
1830;DHT22;914;48.118;11.600;2022-09-09T15:54:16;21.30;94.60
1830;DHT22;914;48.118;11.600;2022-09-09T15:56:56;21.10;95.30
1830;DHT22;914;48.118;11.600;2022-09-09T15:59:23;21.20;95.50
1830;DHT22;914;48.118;11.600;2022-09-09T16:01:49;21.40;95.80
1830;DHT22;914;48.118;11.600;2022-09-09T16:04:17;21.50;95.70
1830;DHT22;914;48.118;11.600;2022-09-09T16:06:52;21.60;95.40
1830;DHT22;914;48.118;11.600;2022-09-09T16:09:18;21.60;95.20
1830;DHT22;914;48.118;11.600;2022-09-09T16:11:44;21.60;95.00
1830;DHT22;914;48.118;11.600;2022-09-09T16:14:12;21.50;95.00
1830;DHT22;914;48.118;11.600;2022-09-09T16:16:38;21.40;95.20
1830;DHT22;914;48.118;11.600;2022-09-09T16:19:06;21.20;95.20
1830;DHT22;914;48.118;11.600;2022-09-09T16:21:44;21.40;95.20
1830;DHT22;914;48.118;11.600;2022-09-09T16:24:13;21.40;95.60
1830;DHT22;914;48.118;11.600;2022-09-09T16:26:43;21.50;95.30
1830;DHT22;914;48.118;11.600;2022-09-09T16:29:11;21.60;95.30
1830;DHT22;914;48.118;11.600;2022-09-09T16:31:38;21.70;94.70
1830;DHT22;914;48.118;11.600;2022-09-09T16:34:06;21.90;93.70
1830;DHT22;914;48.118;11.600;2022-09-09T16:36:34;21.90;94.00
1830;DHT22;914;48.118;11.600;2022-09-09T16:39:03;22.00;93.40
1830;DHT22;914;48.118;11.600;2022-09-09T16:41:29;21.90;93.60
1830;DHT22;914;48.118;11.600;2022-09-09T16:44:00;21.80;93.00
1830;DHT22;914;48.118;11.600;2022-09-09T16:46:29;21.80;93.10
1830;DHT22;914;48.118;11.600;2022-09-09T16:49:01;21.70;93.20
1830;DHT22;914;48.118;11.600;2022-09-09T16:51:37;21.40;93.30
1830;DHT22;914;48.118;11.600;2022-09-09T16:54:05;21.40;93.40
1830;DHT22;914;48.118;11.600;2022-09-09T16:56:33;21.40;93.30
1830;DHT22;914;48.118;11.600;2022-09-09T16:59:01;21.20;93.80
1830;DHT22;914;48.118;11.600;2022-09-09T17:01:30;21.00;93.70
1830;DHT22;914;48.118;11.600;2022-09-09T17:03:58;21.00;94.20
1830;DHT22;914;48.118;11.600;2022-09-09T17:06:24;20.90;93.80
1830;DHT22;914;48.118;11.600;2022-09-09T17:08:55;20.90;93.90
1830;DHT22;914;48.118;11.600;2022-09-09T17:11:21;21.00;93.90
1830;DHT22;914;48.118;11.600;2022-09-09T17:13:47;21.00;93.80
1830;DHT22;914;48.118;11.600;2022-09-09T17:16:15;20.90;93.90
1830;DHT22;914;48.118;11.600;2022-09-09T17:18:42;21.10;93.70
1830;DHT22;914;48.118;11.600;2022-09-09T17:21:11;20.80;93.90
1830;DHT22;914;48.118;11.600;2022-09-09T17:23:37;20.70;94.30
1830;DHT22;914;48.118;11.600;2022-09-09T17:26:05;20.60;94.50
1830;DHT22;914;48.118;11.600;2022-09-09T17:28:33;20.60;94.60
1830;DHT22;914;48.118;11.600;2022-09-09T17:30:59;20.70;94.70
1830;DHT22;914;48.118;11.600;2022-09-09T17:33:27;20.40;94.80
1830;DHT22;914;48.118;11.600;2022-09-09T17:35:59;20.40;95.00
1830;DHT22;914;48.118;11.600;2022-09-09T17:38:27;20.30;95.00
1830;DHT22;914;48.118;11.600;2022-09-09T17:41:04;20.20;95.20
1830;DHT22;914;48.118;11.600;2022-09-09T17:43:30;20.40;95.30
1830;DHT22;914;48.118;11.600;2022-09-09T17:46:01;20.40;95.20
1830;DHT22;914;48.118;11.600;2022-09-09T17:48:30;20.20;95.50
1830;DHT22;914;48.118;11.600;2022-09-09T17:50:59;20.10;95.70
1830;DHT22;914;48.118;11.600;2022-09-09T17:53:25;20.00;95.70
1830;DHT22;914;48.118;11.600;2022-09-09T17:55:51;20.00;95.90
1830;DHT22;914;48.118;11.600;2022-09-09T17:58:17;19.90;96.00
1830;DHT22;914;48.118;11.600;2022-09-09T18:00:42;19.90;96.20
1830;DHT22;914;48.118;11.600;2022-09-09T18:03:08;19.70;96.50
1830;DHT22;914;48.118;11.600;2022-09-09T18:05:34;19.50;96.70
1830;DHT22;914;48.118;11.600;2022-09-09T18:08:00;19.50;96.80
1830;DHT22;914;48.118;11.600;2022-09-09T18:10:25;19.50;96.80
1830;DHT22;914;48.118;11.600;2022-09-09T18:12:51;19.40;97.00
1830;DHT22;914;48.118;11.600;2022-09-09T18:15:17;19.40;97.10